createdAt,value
2018-09-19T00:00:31.098Z,2.90
2018-09-19T00:02:59.041Z,3.10
2018-09-19T00:05:27.101Z,3.30
2018-09-19T00:07:55.111Z,3.10
2018-09-19T00:10:23.257Z,3.13
2018-09-19T00:12:51.325Z,2.57
2018-09-19T00:15:19.390Z,3.10
2018-09-19T00:17:47.276Z,2.80
2018-09-19T00:20:15.233Z,3.00
2018-09-19T00:22:43.128Z,3.03
2018-09-19T00:25:11.055Z,2.93
2018-09-19T00:27:39.137Z,2.90
2018-09-19T00:30:07.002Z,2.57
2018-09-19T00:32:34.973Z,3.20
2018-09-19T00:35:03.030Z,2.63
2018-09-19T00:37:30.925Z,3.17
2018-09-19T00:39:58.785Z,2.93
2018-09-19T00:42:26.673Z,2.90
2018-09-19T00:44:54.710Z,2.80
2018-09-19T00:47:22.780Z,3.07
2018-09-19T00:49:50.846Z,2.73
2018-09-19T00:52:18.929Z,2.87
2018-09-19T00:54:46.923Z,2.67
2018-09-19T00:57:14.808Z,2.70
2018-09-19T00:59:42.684Z,3.03
2018-09-19T01:02:10.569Z,3.00
2018-09-19T01:04:38.657Z,3.13
2018-09-19T01:07:06.742Z,2.83
2018-09-19T01:09:34.794Z,2.93
2018-09-19T01:12:02.876Z,2.70
2018-09-19T01:14:30.958Z,2.77
2018-09-19T01:16:59.013Z,2.77
2018-09-19T01:19:26.905Z,3.17
2018-09-19T01:21:54.773Z,2.90
2018-09-19T01:24:22.938Z,2.80
2018-09-19T01:26:50.991Z,3.00
2018-09-19T01:29:18.876Z,2.83
2018-09-19T01:31:46.757Z,2.60
2018-09-19T01:34:14.648Z,2.90
2018-09-19T01:36:42.678Z,2.70
2018-09-19T01:39:10.750Z,2.87
2018-09-19T01:41:38.805Z,2.70
2018-09-19T01:44:06.688Z,2.87
2018-09-19T01:46:34.560Z,2.70
2018-09-19T01:49:02.464Z,2.83
2018-09-19T01:51:30.476Z,2.70
2018-09-19T01:53:58.369Z,3.20
2018-09-19T01:56:26.262Z,2.77
2018-09-19T01:58:54.392Z,2.87
2018-09-19T02:01:22.446Z,2.93
2018-09-19T02:03:50.543Z,2.53
2018-09-19T02:06:18.408Z,2.90
2018-09-19T02:08:46.299Z,3.20
2018-09-19T02:11:14.439Z,2.70
2018-09-19T02:13:42.518Z,2.73
2018-09-19T02:16:10.570Z,2.80
2018-09-19T02:18:38.457Z,2.80
2018-09-19T02:21:06.409Z,2.73
2018-09-19T02:23:34.492Z,2.90
2018-09-19T02:26:02.853Z,2.80
2018-09-19T02:28:30.786Z,2.87
2018-09-19T02:30:58.693Z,2.70
2018-09-19T02:33:26.777Z,2.83
2018-09-19T02:35:54.828Z,2.80
2018-09-19T02:38:22.929Z,3.00
2018-09-19T02:40:50.978Z,2.83
2018-09-19T02:43:18.869Z,2.87
2018-09-19T02:45:46.810Z,3.10
2018-09-19T02:48:14.692Z,2.80
2018-09-19T02:50:42.645Z,2.80
2018-09-19T02:53:10.743Z,2.70
2018-09-19T02:55:38.621Z,2.60
2018-09-19T02:58:06.503Z,2.43
2018-09-19T03:00:34.404Z,2.60
2018-09-19T03:03:02.389Z,2.33
2018-09-19T03:05:30.326Z,2.70
2018-09-19T03:07:58.226Z,2.80
2018-09-19T03:10:26.106Z,2.80
2018-09-19T03:12:53.984Z,2.50
2018-09-19T03:15:23.125Z,2.50
2018-09-19T03:17:51.207Z,2.50
2018-09-19T03:20:19.015Z,2.80
2018-09-19T03:22:46.883Z,2.63
2018-09-19T03:25:15.046Z,2.70
2018-09-19T03:27:43.111Z,2.50
2018-09-19T03:30:10.989Z,3.00
2018-09-19T03:32:38.873Z,2.67
2018-09-19T03:35:06.977Z,2.90
2018-09-19T03:37:35.085Z,2.70
2018-09-19T03:40:07.663Z,2.80
2018-09-19T03:42:35.824Z,2.93
2018-09-19T03:45:04.058Z,2.90
2018-09-19T03:47:31.920Z,2.27
2018-09-19T03:50:00.065Z,2.83
2018-09-19T03:52:28.117Z,2.60
2018-09-19T03:54:56.007Z,2.87
2018-09-19T03:57:23.964Z,2.73
2018-09-19T03:59:52.046Z,2.73
2018-09-19T04:02:20.096Z,2.80
2018-09-19T04:04:47.969Z,2.57
2018-09-19T04:07:15.846Z,2.70
2018-09-19T04:09:43.733Z,2.80
2018-09-19T04:12:11.768Z,2.77
2018-09-19T04:14:39.865Z,2.43
2018-09-19T04:17:07.912Z,2.97
2018-09-19T04:19:35.993Z,2.60
2018-09-19T04:22:04.058Z,2.60
2018-09-19T04:24:32.133Z,2.60
2018-09-19T04:27:00.005Z,2.80
2018-09-19T04:29:27.974Z,2.60
2018-09-19T04:31:55.871Z,2.77
2018-09-19T04:34:23.812Z,2.60
2018-09-19T04:36:51.686Z,2.93
2018-09-19T04:39:19.545Z,2.50
2018-09-19T04:41:47.714Z,2.50
2018-09-19T04:44:15.580Z,2.67
2018-09-19T04:46:43.554Z,2.60
2018-09-19T04:49:11.617Z,2.67
2018-09-19T04:51:40.369Z,2.60
2018-09-19T04:54:08.606Z,2.70
2018-09-19T04:56:37.334Z,2.70
2018-09-19T04:59:05.433Z,2.60
2018-09-19T05:01:33.508Z,2.77
2018-09-19T05:04:01.571Z,2.70
2018-09-19T05:06:29.653Z,2.80
2018-09-19T05:08:57.654Z,2.43
2018-09-19T05:11:25.845Z,2.67
2018-09-19T05:13:54.099Z,2.57
2018-09-19T05:16:21.978Z,2.73
2018-09-19T05:18:50.232Z,2.70
2018-09-19T05:21:18.104Z,2.47
2018-09-19T05:23:46.173Z,2.30
2018-09-19T05:26:14.228Z,2.90
2018-09-19T05:28:42.103Z,2.40
2018-09-19T05:31:10.009Z,2.67
2018-09-19T05:33:38.121Z,2.63
2018-09-19T05:36:06.221Z,2.30
2018-09-19T05:38:34.266Z,2.57
2018-09-19T05:41:02.150Z,2.60
2018-09-19T05:43:30.022Z,2.60
2018-09-19T05:45:58.190Z,2.60
2018-09-19T05:48:26.241Z,2.30
2018-09-19T05:50:54.318Z,2.47
2018-09-19T05:53:22.185Z,2.50
2018-09-19T05:55:50.205Z,2.40
2018-09-19T05:58:18.089Z,2.30
2018-09-19T06:00:46.004Z,2.67
2018-09-19T06:03:13.869Z,2.40
2018-09-19T06:05:41.828Z,2.30
2018-09-19T06:08:09.889Z,2.50
2018-09-19T06:10:37.973Z,2.67
2018-09-19T06:13:05.839Z,2.63
2018-09-19T06:15:33.725Z,2.37
2018-09-19T06:18:01.875Z,2.47
2018-09-19T06:20:29.862Z,2.40
2018-09-19T06:22:58.021Z,2.90
2018-09-19T06:25:25.872Z,2.93
2018-09-19T06:27:53.750Z,3.70
2018-09-19T06:30:21.922Z,3.40
2018-09-19T06:32:50.015Z,3.30
2018-09-19T06:35:18.059Z,3.40
2018-09-19T06:37:46.068Z,3.70
2018-09-19T06:40:14.163Z,3.60
2018-09-19T06:42:41.957Z,3.67
2018-09-19T06:45:10.038Z,3.40
2018-09-19T06:47:37.924Z,3.47
2018-09-19T06:50:07.850Z,3.70
2018-09-19T06:52:35.820Z,3.70
2018-09-19T06:55:03.861Z,3.90
2018-09-19T06:57:36.509Z,3.83
2018-09-19T07:00:04.933Z,3.57
2018-09-19T07:02:32.822Z,3.80
2018-09-19T07:05:00.753Z,3.20
2018-09-19T07:07:28.839Z,3.57
2018-09-19T07:09:56.686Z,3.93
2018-09-19T07:12:24.572Z,3.40
2018-09-19T07:14:52.713Z,3.63
2018-09-19T07:17:20.801Z,3.53
2018-09-19T07:19:48.878Z,3.30
2018-09-19T07:22:16.777Z,3.27
2018-09-19T07:24:44.711Z,3.20
2018-09-19T07:27:12.610Z,3.87
2018-09-19T07:29:40.539Z,3.27
2018-09-19T07:32:12.298Z,3.07
2018-09-19T07:34:40.369Z,2.67
2018-09-19T07:37:08.253Z,2.77
2018-09-19T07:39:36.215Z,2.60
2018-09-19T07:42:04.289Z,2.27
2018-09-19T07:44:32.164Z,2.37
2018-09-19T07:47:00.042Z,2.40
2018-09-19T07:49:28.185Z,2.10
2018-09-19T14:56:13.617Z,5.80
2018-09-19T14:58:41.602Z,7.70
2018-09-19T15:01:09.675Z,7.92
2018-09-19T15:03:37.565Z,6.83
2018-09-19T15:06:05.509Z,7.53
2018-09-19T15:08:33.573Z,6.37
2018-09-19T15:11:01.488Z,6.75
2018-09-19T15:13:29.372Z,6.87
2018-09-19T15:15:57.472Z,5.97
2018-09-19T15:18:25.542Z,6.20
2018-09-19T15:20:53.654Z,6.17
2018-09-19T15:23:21.705Z,5.22
2018-09-19T15:25:49.593Z,6.47
2018-09-19T15:28:17.509Z,5.55
2018-09-19T15:30:45.594Z,5.58
2018-09-19T15:33:13.486Z,5.35
2018-09-19T15:35:41.375Z,5.37
2018-09-19T15:38:09.301Z,5.15
2018-09-19T15:40:37.262Z,4.90
2018-09-19T15:43:05.317Z,4.75
2018-09-19T15:45:33.410Z,4.40
2018-09-19T15:48:01.294Z,4.35
2018-09-19T15:50:31.224Z,4.67
2018-09-19T15:52:59.090Z,4.53
2018-09-19T15:55:29.384Z,4.78
2018-09-19T15:57:57.429Z,4.47
2018-09-19T16:00:25.753Z,5.12
2018-09-19T16:02:53.822Z,4.50
2018-09-19T16:05:21.965Z,4.12
2018-09-19T16:07:49.889Z,4.40
2018-09-19T16:10:17.806Z,4.00
2018-09-19T16:12:45.674Z,4.42
2018-09-19T16:15:13.554Z,4.30
2018-09-19T16:17:41.416Z,4.12
2018-09-19T16:20:09.573Z,4.10
2018-09-19T16:22:37.521Z,4.20
2018-09-19T16:25:05.613Z,4.10
2018-09-19T16:27:33.661Z,4.17
2018-09-19T16:30:01.754Z,4.72
2018-09-19T16:32:29.818Z,4.20
2018-09-19T16:34:57.714Z,4.35
2018-09-19T16:37:25.641Z,4.15
2018-09-19T16:39:53.724Z,3.92
2018-09-19T16:42:21.593Z,4.12
2018-09-19T16:44:49.561Z,4.05
2018-09-19T16:47:17.439Z,4.03
2018-09-19T16:49:45.401Z,4.00
2018-09-19T16:52:14.664Z,3.58
2018-09-19T16:54:42.554Z,3.72
2018-09-19T16:57:10.537Z,3.47
2018-09-19T16:59:38.585Z,3.87
2018-09-19T17:02:06.468Z,3.17
2018-09-19T17:04:34.349Z,3.58
2018-09-19T17:07:02.516Z,3.95
2018-09-19T17:09:30.544Z,4.05
2018-09-19T17:11:58.649Z,3.95
2018-09-19T17:14:26.713Z,3.95
2018-09-19T17:16:54.792Z,3.50
2018-09-19T17:19:22.766Z,3.67
2018-09-19T17:21:50.937Z,3.62
2018-09-19T17:24:19.005Z,3.70
2018-09-19T17:26:47.073Z,3.55
2018-09-19T17:29:15.138Z,3.87
2018-09-19T17:31:43.217Z,3.15
2018-09-19T17:34:11.088Z,3.17
2018-09-19T17:36:39.069Z,3.80
2018-09-19T17:39:08.365Z,3.35
2018-09-19T17:41:36.249Z,3.80
2018-09-19T17:44:04.182Z,3.37
2018-09-19T17:46:32.069Z,3.30
2018-09-19T17:49:00.011Z,3.55
2018-09-19T17:51:27.897Z,3.50
2018-09-19T17:53:55.850Z,3.33
2018-09-19T17:56:23.854Z,3.52
2018-09-19T17:58:51.986Z,3.10
2018-09-19T18:01:20.073Z,3.47
2018-09-19T18:03:48.053Z,3.22
2018-09-19T18:06:16.286Z,3.20
2018-09-19T18:08:44.278Z,3.37
2018-09-19T18:11:12.157Z,3.25
2018-09-19T18:13:40.337Z,3.37
2018-09-19T18:16:08.501Z,3.10
2018-09-19T18:18:36.553Z,3.00
2018-09-19T18:21:04.652Z,3.50
2018-09-19T18:23:32.706Z,2.90
2018-09-19T18:26:00.784Z,3.10
2018-09-19T18:28:28.764Z,3.52
2018-09-19T18:30:56.664Z,3.15
2018-09-19T18:33:24.544Z,3.22
2018-09-19T18:35:52.442Z,3.57
2018-09-19T18:38:20.545Z,2.93
2018-09-19T18:40:48.594Z,3.47
2018-09-19T18:43:16.469Z,3.33
2018-09-19T18:45:44.426Z,3.53
2018-09-19T18:48:12.305Z,3.40
2018-09-19T18:50:40.214Z,3.20
2018-09-19T18:53:08.336Z,2.80
2018-09-19T18:55:36.397Z,3.37
2018-09-19T18:58:04.277Z,3.20
2018-09-19T19:00:32.141Z,3.40
2018-09-19T19:03:00.319Z,2.90
2018-09-19T19:05:28.374Z,3.20
2018-09-19T19:07:56.308Z,2.73
2018-09-19T19:10:24.206Z,3.30
2018-09-19T19:12:52.293Z,3.20
2018-09-19T19:15:20.353Z,3.20
2018-09-19T19:17:48.440Z,2.80
2018-09-19T19:20:16.495Z,3.30
2018-09-19T19:22:44.372Z,2.90
2018-09-19T19:25:12.329Z,3.33
2018-09-19T19:27:40.413Z,3.30
2018-09-19T19:30:08.491Z,2.70
2018-09-19T19:32:36.567Z,3.20
2018-09-19T19:35:04.613Z,3.40
2018-09-19T19:37:32.506Z,3.13
2018-09-19T19:40:00.453Z,2.97
2018-09-19T19:42:28.537Z,3.13
2018-09-19T19:44:56.594Z,3.20
2018-09-19T19:47:24.476Z,2.80
2018-09-19T19:49:52.437Z,3.10
2018-09-19T19:52:20.523Z,2.97
2018-09-19T19:54:48.573Z,3.20
2018-09-19T19:57:16.656Z,2.73
2018-09-19T19:59:44.525Z,2.57
2018-09-19T20:02:12.502Z,3.17
2018-09-19T20:04:40.374Z,3.00
2018-09-19T20:07:08.342Z,2.90
2018-09-19T20:09:36.239Z,2.70
2018-09-19T20:12:04.086Z,2.90
2018-09-19T20:14:31.972Z,3.03
2018-09-19T20:16:59.982Z,2.90
2018-09-19T20:19:28.078Z,2.80
2018-09-19T20:21:56.129Z,2.87
2018-09-19T20:24:24.220Z,2.93
2018-09-19T20:26:52.089Z,3.10
2018-09-19T20:29:19.970Z,2.80
2018-09-19T20:31:48.112Z,2.97
2018-09-19T20:34:16.030Z,3.10
2018-09-19T20:36:43.936Z,2.97
2018-09-19T20:39:12.058Z,2.80
2018-09-19T20:41:39.938Z,2.80
2018-09-19T20:44:07.826Z,2.93
2018-09-19T20:46:35.922Z,2.67
2018-09-19T20:49:04.030Z,2.50
2018-09-19T20:51:31.930Z,3.00
2018-09-19T20:53:59.841Z,2.83
2018-09-19T20:56:27.898Z,2.73
2018-09-19T20:58:55.980Z,2.73
2018-09-19T21:01:24.037Z,2.73
2018-09-19T21:03:51.921Z,2.80
2018-09-19T21:06:20.262Z,2.70
2018-09-19T21:08:48.265Z,3.00
2018-09-19T21:11:16.132Z,2.77
2018-09-19T21:13:44.018Z,2.77
2018-09-19T21:16:11.889Z,2.53
2018-09-19T21:18:39.937Z,2.60
2018-09-19T21:21:07.805Z,2.63
2018-09-19T21:23:35.694Z,3.00
2018-09-19T21:26:03.649Z,3.20
2018-09-19T21:28:31.760Z,2.40
2018-09-19T21:30:59.498Z,2.90
2018-09-19T21:33:27.450Z,2.60
2018-09-19T21:35:55.437Z,3.00
2018-09-19T21:38:23.590Z,2.83
2018-09-19T21:40:51.655Z,2.90
2018-09-19T21:43:19.918Z,2.60
2018-09-19T21:45:47.801Z,2.70
2018-09-19T21:48:15.861Z,2.70
2018-09-19T21:50:43.941Z,2.53
2018-09-19T21:53:11.806Z,2.90
2018-09-19T21:55:39.694Z,3.20
2018-09-19T21:58:07.838Z,2.77
2018-09-19T22:00:35.921Z,2.53
2018-09-19T22:03:03.977Z,2.60
2018-09-19T22:05:31.868Z,2.50
2018-09-19T22:07:59.734Z,2.70
2018-09-19T22:10:28.612Z,2.83
2018-09-19T22:12:56.489Z,2.50
2018-09-19T22:15:24.661Z,2.30
2018-09-19T22:17:52.713Z,2.60
2018-09-19T22:20:20.773Z,2.60
2018-09-19T22:22:48.853Z,2.50
2018-09-19T22:25:16.940Z,2.40
2018-09-19T22:27:45.019Z,2.90
2018-09-19T22:30:13.090Z,2.47
2018-09-19T22:32:41.141Z,2.50
2018-09-19T22:35:09.137Z,2.30
2018-09-19T22:37:37.289Z,2.37
2018-09-19T22:40:05.368Z,2.60
2018-09-19T22:42:33.237Z,2.53
2018-09-19T22:45:01.117Z,2.87
2018-09-19T22:47:28.990Z,2.60
2018-09-19T22:49:57.041Z,2.40
2018-09-19T22:52:24.905Z,2.67
2018-09-19T22:54:52.781Z,2.10
2018-09-19T22:57:21.243Z,2.70
2018-09-19T22:59:49.327Z,2.57
2018-09-19T23:02:17.193Z,2.43
2018-09-19T23:04:45.165Z,2.87
2018-09-19T23:07:13.221Z,2.83
2018-09-19T23:09:41.443Z,2.30
2018-09-19T23:12:09.362Z,2.60
2018-09-19T23:14:37.441Z,2.30
2018-09-19T23:17:05.514Z,2.70
2018-09-19T23:19:33.585Z,2.70
2018-09-19T23:22:02.076Z,2.50
2018-09-19T23:24:29.970Z,2.43
2018-09-19T23:26:57.853Z,2.63
2018-09-19T23:29:25.856Z,2.50
2018-09-19T23:31:53.953Z,2.70
2018-09-19T23:34:21.814Z,2.73
2018-09-19T23:36:50.098Z,2.50
2018-09-19T23:39:18.146Z,2.30
2018-09-19T23:41:46.234Z,2.13
2018-09-19T23:44:14.097Z,2.60
2018-09-19T23:46:42.066Z,2.70
2018-09-19T23:49:09.929Z,2.40
2018-09-19T23:51:37.913Z,2.70
2018-09-19T23:54:05.968Z,2.20
2018-09-19T23:56:34.050Z,2.57
2018-09-19T23:59:02.126Z,2.60
